Terminal Aerodrome Forecast
Issued by NWS Goodland, KS

Home | Current Version | Previous Version | Text Only | Print | Product List | Glossary On
Versions: 1 2 3 4 5 6 7 8 9 10 11 12 13 14 15 16 17 18 19 20 21 22 23 24
000
FTUS43 KGLD 242320
TAFGLD
TAF
KGLD 242320Z 2500/2524 14012G17KT P6SM SCT045
     FM250400 15011KT P6SM SCT004 SCT150
     FM250800 21008KT P6SM SCT004
     FM250900 26009KT P6SM SCT004
     FM251100 29009KT P6SM SKC
     FM251500 32009KT P6SM SKC
     FM251800 35007KT P6SM SKC
     FM252000 24007KT P6SM FEW090
     FM252200 20007KT P6SM FEW090=

USA.gov is the U.S. government's official web portal to all federal, state and local government web resources and services.